メインページ
METAR-TAF:

METAR-TAF

空港 :

バグダード, イラク

バグダード国際空港

緯度: 33-15-45N, 経度: 44-14-04E, 海抜: 35m

現時点の気象観測

当レポートは5分前の05:00(UTC)に作成
北西の風 4kt
気温 19°C
湿度 32%
気圧 1015 hPa
視程10km以上
1,500メートル以下は雲なし、積乱雲なし

METAR: ORBI 210500Z 31004KT CAVOK 19/02 Q1015 NOSIG

時間: 08:05 (05:05 UTC)

予報

当レポートは6時間5分前の23:00(UTC)に作成
予報は21日の 00時(UTC)から 21日の 24時(UTC)まで有効
西/北西の風 6kt
視程10km以上
1,500メートル以下は雲なし、積乱雲なし

TAF: ORBI 202300Z 2100/2124 30006KT CAVOK

4,000以上の空港の気象観測と天気予報(METAR報とTAF報)

利用可能な観測所は地図上に黄色い丸と赤い丸で示す。

丸の上にカーソルを重ねると観測所名を参照できる。

次にクリックすると気象観測と天気予報を参照できる。

マップの切り替え:黒色「×」印の緑ボタンをクリックして拡大、「-」印の緑ボタンをクリックして縮小、緑色の三角印をクリックして隣りの地図に切り替え


METAR-TAF: